Time;durP1;ratioP1;P1;durP2;ratioP2;P2;SDS_P1;SDS_P2;PMS_P1;PMS_P2;Temp;Humidity;BMP_temperature;BMP_pressure;BME280_temperature;BME280_humidity;BME280_pressure;Samples;Min_cycle;Max_cycle;Signal;HPM_P1;HPM_P2
2021/09/06 00:00:16;;;;;;;7.20;3.50;;;;;;;19.25;60.49;102087.34;4771203;29;121462;-71
2021/09/06 00:02:43;;;;;;;7.32;3.40;;;;;;;19.32;60.59;102087.75;4797993;29;120213;-71
2021/09/06 00:05:10;;;;;;;7.90;3.53;;;;;;;19.35;60.10;102088.78;4783905;29;120134;-71
2021/09/06 00:07:37;;;;;;;7.90;3.63;;;;;;;19.31;58.44;102086.22;4779523;29;120314;-73
2021/09/06 00:10:35;;;;;;;9.27;3.73;;;;;;;19.27;58.80;102093.22;4770148;29;120363;-72
2021/09/06 00:13:03;;;;;;;9.70;4.43;;;;;;;19.22;59.17;102099.44;4777132;29;120686;-71
2021/09/06 00:15:30;;;;;;;7.28;3.80;;;;;;;19.15;59.25;102094.22;4783636;29;119963;-71
2021/09/06 00:17:55;;;;;;;9.07;3.70;;;;;;;19.12;60.03;102095.94;4782600;29;119811;-72
2021/09/06 00:20:21;;;;;;;8.77;3.93;;;;;;;19.09;60.00;102096.91;4786324;29;119733;-71
2021/09/06 00:22:47;;;;;;;7.78;4.15;;;;;;;19.07;60.75;102090.28;4784753;29;120302;-72
2021/09/06 00:25:13;;;;;;;7.90;4.15;;;;;;;19.08;61.05;102094.59;4808033;29;120137;-72
2021/09/06 00:27:39;;;;;;;8.25;3.90;;;;;;;19.12;61.47;102092.41;4790471;29;121857;-71
2021/09/06 00:30:08;;;;;;;9.35;4.65;;;;;;;19.13;61.58;102086.34;4798098;29;120006;-74
2021/09/06 00:32:34;;;;;;;9.70;3.97;;;;;;;19.14;59.14;102089.91;4804061;29;119937;-71
2021/09/06 00:34:59;;;;;;;6.73;3.70;;;;;;;19.11;58.64;102076.97;4802806;29;120316;-73
2021/09/06 00:37:25;;;;;;;9.37;3.87;;;;;;;19.03;58.23;102073.78;4782586;29;120052;-70
2021/09/06 00:39:51;;;;;;;6.80;3.83;;;;;;;18.97;58.00;102073.69;4803082;29;124739;-74
2021/09/06 00:42:16;;;;;;;8.60;3.83;;;;;;;18.90;57.88;102074.03;4786591;29;123279;-71
2021/09/06 00:44:42;;;;;;;6.73;3.60;;;;;;;18.81;57.54;102067.78;4781863;29;120495;-72
2021/09/06 00:47:07;;;;;;;8.40;3.50;;;;;;;18.72;57.77;102067.84;4786279;29;120936;-71
2021/09/06 00:49:33;;;;;;;8.10;3.60;;;;;;;18.64;57.99;102067.41;4800325;29;119688;-71
2021/09/06 00:51:59;;;;;;;7.90;4.10;;;;;;;18.56;58.36;102055.09;4802807;29;119875;-71
2021/09/06 00:54:26;;;;;;;8.10;3.70;;;;;;;18.51;58.50;102058.53;4802567;29;119666;-72
2021/09/06 00:56:53;;;;;;;6.93;3.57;;;;;;;18.42;58.59;102062.88;4795192;29;120404;-71
2021/09/06 00:59:19;;;;;;;7.35;3.47;;;;;;;18.39;58.66;102071.41;4800260;29;123234;-72
2021/09/06 01:01:44;;;;;;;5.90;3.13;;;;;;;18.33;58.43;102076.84;4779897;29;120354;-75
2021/09/06 01:04:10;;;;;;;5.88;3.25;;;;;;;18.31;58.29;102081.31;4801709;29;121248;-71
2021/09/06 01:07:14;;;;;;;6.72;3.30;;;;;;;18.22;58.31;102076.59;4783760;29;120030;-74
2021/09/06 01:10:10;;;;;;;6.18;3.17;;;;;;;18.10;59.02;102069.22;4790626;29;119597;-71
2021/09/06 01:12:48;;;;;;;9.27;3.60;;;;;;;18.14;59.31;102091.25;4805393;29;121734;-72
2021/09/06 01:15:13;;;;;;;6.97;3.37;;;;;;;18.12;59.02;102085.41;4767885;29;120344;-71
2021/09/06 01:17:41;;;;;;;5.63;3.00;;;;;;;18.11;59.17;102081.88;4767631;29;119544;-72
2021/09/06 01:20:10;;;;;;;7.43;3.20;;;;;;;18.09;59.13;102085.13;4784149;29;120851;-71
2021/09/06 01:22:39;;;;;;;5.70;2.97;;;;;;;18.08;59.48;102078.03;4784358;29;119928;-72
2021/09/06 01:25:17;;;;;;;5.03;3.00;;;;;;;18.07;59.40;102075.72;4784559;29;120225;-72
2021/09/06 01:27:44;;;;;;;6.55;2.88;;;;;;;18.06;59.09;102072.16;4790593;29;119740;-72
2021/09/06 01:30:13;;;;;;;6.90;3.10;;;;;;;18.06;58.74;102074.19;4802180;29;120280;-73
2021/09/06 01:32:39;;;;;;;5.43;2.90;;;;;;;18.05;59.26;102078.19;4771164;29;121534;-71
2021/09/06 01:35:06;;;;;;;4.80;2.50;;;;;;;18.04;59.54;102077.44;4782149;29;120569;-72
2021/09/06 01:37:33;;;;;;;5.00;2.70;;;;;;;18.02;58.76;102081.91;4785974;29;120792;-72
2021/09/06 01:40:00;;;;;;;7.65;2.90;;;;;;;17.93;59.03;102054.94;4786860;29;120351;-71
2021/09/06 01:42:28;;;;;;;5.38;2.83;;;;;;;17.99;58.98;102072.53;4789128;29;119912;-71
2021/09/06 01:44:57;;;;;;;5.53;3.00;;;;;;;17.99;59.42;102068.97;4804583;29;120387;-71
2021/09/06 01:47:28;;;;;;;4.43;2.80;;;;;;;17.98;59.42;102061.84;4771107;29;121189;-71
2021/09/06 01:49:54;;;;;;;6.40;2.90;;;;;;;17.98;59.25;102061.84;4775664;29;123654;-72
2021/09/06 01:52:21;;;;;;;5.47;2.72;;;;;;;17.97;59.49;102061.09;4778062;29;119770;-71
2021/09/06 01:54:50;;;;;;;6.43;2.90;;;;;;;17.99;59.43;102058.63;4780391;29;120179;-71
2021/09/06 01:57:15;;;;;;;5.60;3.15;;;;;;;17.98;59.28;102064.63;4800959;29;119873;-71
2021/09/06 01:59:41;;;;;;;5.60;3.10;;;;;;;17.88;58.97;102052.03;4786617;29;121357;-72
2021/09/06 02:02:07;;;;;;;7.35;3.13;;;;;;;17.94;59.61;102055.69;4762697;29;121323;-73
2021/09/06 02:04:41;;;;;;;6.33;2.97;;;;;;;17.92;59.38;102058.94;4782219;29;120664;-74
2021/09/06 02:07:07;;;;;;;4.73;2.60;;;;;;;17.91;58.88;102067.75;4804547;29;120851;-71
2021/09/06 02:09:33;;;;;;;7.85;3.60;;;;;;;17.89;58.61;102064.69;4801217;29;120272;-73
2021/09/06 02:12:02;;;;;;;7.05;3.13;;;;;;;17.87;59.22;102070.69;4790717;29;120070;-71
2021/09/06 02:14:30;;;;;;;7.30;3.67;;;;;;;17.82;58.98;102070.56;4791648;29;119656;-74
2021/09/06 02:16:56;;;;;;;6.03;3.60;;;;;;;17.78;58.82;102063.19;4770223;29;120763;-73
2021/09/06 02:19:33;;;;;;;11.77;6.07;;;;;;;17.77;59.25;102069.97;4787466;29;119958;-72
2021/09/06 02:21:58;;;;;;;10.82;5.50;;;;;;;17.75;59.90;102061.34;4785120;29;120199;-71
2021/09/06 02:24:26;;;;;;;13.13;7.00;;;;;;;17.74;59.69;102054.25;4779977;29;120753;-71
2021/09/06 02:26:59;;;;;;;10.93;6.20;;;;;;;17.75;59.25;102061.34;4784860;29;120455;-71
2021/09/06 02:29:26;;;;;;;10.52;5.40;;;;;;;17.73;59.12;102047.13;4787915;29;119649;-72
2021/09/06 02:32:10;;;;;;;13.05;5.55;;;;;;;17.72;59.59;102044.81;4797440;29;119967;-72
2021/09/06 02:34:49;;;;;;;10.20;5.22;;;;;;;17.70;59.74;102044.53;4783425;29;120805;-71
2021/09/06 02:37:15;;;;;;;7.93;5.00;;;;;;;17.72;59.84;102047.59;4779440;29;121559;-71
2021/09/06 02:39:44;;;;;;;8.90;4.90;;;;;;;17.60;59.41;102035.44;4787654;29;121032;-72
2021/09/06 02:42:10;;;;;;;9.80;4.80;;;;;;;17.67;59.48;102046.22;4777257;29;120983;-73
2021/09/06 02:44:37;;;;;;;7.90;5.28;;;;;;;17.65;59.11;102047.91;4786655;29;121897;-73
2021/09/06 02:47:06;;;;;;;7.63;4.70;;;;;;;17.61;59.21;102044.53;4783562;29;120012;-72
2021/09/06 02:49:32;;;;;;;7.50;4.70;;;;;;;17.60;59.57;102054.09;4769481;29;122808;-74
2021/09/06 02:51:59;;;;;;;6.93;4.80;;;;;;;17.58;59.65;102045.47;4767694;29;120021;-71
2021/09/06 02:54:27;;;;;;;7.68;4.90;;;;;;;17.56;59.42;102048.72;4799914;29;120414;-72
2021/09/06 02:56:53;;;;;;;8.88;4.90;;;;;;;17.56;59.60;102045.94;4801902;29;120231;-73
2021/09/06 02:59:19;;;;;;;6.25;5.00;;;;;;;17.56;58.93;102045.94;4779238;29;119758;-73
2021/09/06 03:01:45;;;;;;;7.57;5.00;;;;;;;17.52;59.41;102034.25;4781520;29;123792;-71
2021/09/06 03:04:11;;;;;;;7.40;4.40;;;;;;;17.53;59.57;102041.31;4790771;29;119738;-71
2021/09/06 03:06:36;;;;;;;6.83;4.40;;;;;;;17.53;59.40;102041.31;4789050;29;119642;-72
2021/09/06 03:09:04;;;;;;;6.70;4.40;;;;;;;17.49;59.23;102033.13;4788718;29;119661;-72
2021/09/06 03:11:35;;;;;;;7.33;4.93;;;;;;;17.47;58.71;102029.28;4772498;29;120056;-73
2021/09/06 03:14:00;;;;;;;8.47;5.53;;;;;;;17.44;59.61;102027.44;4768502;29;120170;-72
2021/09/06 03:16:27;;;;;;;8.90;4.95;;;;;;;17.45;59.04;102031.75;4804817;29;120178;-72
2021/09/06 03:18:57;;;;;;;7.60;4.57;;;;;;;17.40;59.29;102019.28;4787917;29;120393;-73
2021/09/06 03:21:26;;;;;;;7.25;4.60;;;;;;;17.40;59.46;102029.63;4804339;29;119912;-71
2021/09/06 03:23:54;;;;;;;10.90;5.40;;;;;;;17.38;59.19;102026.56;4787556;29;122604;-72
2021/09/06 03:26:22;;;;;;;9.33;5.73;;;;;;;17.37;59.45;102025.00;4775815;29;119963;-72
2021/09/06 03:28:49;;;;;;;7.68;5.53;;;;;;;17.35;59.24;102025.47;4804319;29;119705;-73
2021/09/06 03:31:17;;;;;;;6.90;5.18;;;;;;;17.33;59.20;102024.41;4789002;29;121146;-72
2021/09/06 03:33:42;;;;;;;7.78;5.35;;;;;;;17.32;59.08;102029.19;4769686;29;120686;-73
2021/09/06 03:36:11;;;;;;;7.03;5.40;;;;;;;17.31;59.27;102024.09;4783519;29;122611;-70
2021/09/06 03:38:38;;;;;;;7.45;5.13;;;;;;;17.29;59.06;102013.47;4789248;29;120076;-72
2021/09/06 03:41:07;;;;;;;7.03;5.28;;;;;;;17.27;59.20;102010.41;4789935;29;123927;-72
2021/09/06 03:43:41;;;;;;;7.30;5.17;;;;;;;17.26;59.59;102008.84;4806321;29;121032;-72
2021/09/06 03:46:07;;;;;;;6.00;5.00;;;;;;;17.24;59.18;102011.31;4787530;29;120021;-71
2021/09/06 03:48:34;;;;;;;5.23;4.60;;;;;;;17.22;59.27;102018.56;4785582;29;121201;-71
2021/09/06 03:51:04;;;;;;;8.25;5.97;;;;;;;17.15;58.89;102014.09;4802695;29;120549;-71
2021/09/06 03:53:30;;;;;;;7.63;5.40;;;;;;;17.16;59.32;102018.41;4784910;29;120193;-71
2021/09/06 03:55:56;;;;;;;8.75;5.82;;;;;;;17.15;59.27;102016.88;4778325;29;120716;-72
2021/09/06 03:58:23;;;;;;;10.05;5.10;;;;;;;17.11;59.79;102013.50;4790686;29;122016;-71
2021/09/06 04:00:48;;;;;;;8.48;4.80;;;;;;;17.10;59.52;102012.72;4770259;29;120848;-72
2021/09/06 04:03:17;;;;;;;7.80;4.83;;;;;;;17.09;59.19;102010.41;4790738;29;120072;-72
2021/09/06 04:05:42;;;;;;;7.63;4.60;;;;;;;17.08;59.29;102015.19;4784998;29;121552;-73
2021/09/06 04:08:08;;;;;;;8.37;4.50;;;;;;;17.06;59.19;102012.13;4790717;29;119803;-72
2021/09/06 04:10:34;;;;;;;7.43;4.47;;;;;;;17.05;59.52;102015.34;4822445;23;120225;-74
2021/09/06 04:13:00;;;;;;;8.38;4.50;;;;;;;17.04;59.12;102013.81;4832286;28;120515;-74
2021/09/06 04:15:27;;;;;;;8.02;4.57;;;;;;;17.02;59.26;102019.78;4841731;28;119679;-74
2021/09/06 04:17:54;;;;;;;8.70;4.40;;;;;;;16.92;59.11;102009.97;4829723;28;119863;-75
2021/09/06 04:20:19;;;;;;;10.18;5.00;;;;;;;17.02;59.07;102021.81;4831909;28;120157;-74
2021/09/06 04:22:47;;;;;;;8.63;4.93;;;;;;;16.95;59.18;102013.81;4823830;28;122901;-74
2021/09/06 04:25:16;;;;;;;10.88;5.38;;;;;;;16.97;59.37;102023.19;4851808;28;119690;-74
2021/09/06 04:27:42;;;;;;;15.07;6.40;;;;;;;16.96;59.03;102023.66;4844562;28;120427;-74
2021/09/06 04:30:13;;;;;;;15.67;7.50;;;;;;;16.95;58.96;102028.44;4842136;28;119983;-74
2021/09/06 04:32:40;;;;;;;12.82;7.18;;;;;;;16.93;59.42;102030.91;4846653;28;120039;-74
2021/09/06 04:35:06;;;;;;;11.18;6.88;;;;;;;16.91;59.36;102029.81;4822799;28;121405;-74
2021/09/06 04:37:33;;;;;;;13.02;7.35;;;;;;;16.87;59.40;102027.97;4843782;28;119770;-74
2021/09/06 04:40:02;;;;;;;13.07;7.25;;;;;;;16.89;59.11;102041.38;4831158;28;120325;-74
2021/09/06 04:42:31;;;;;;;16.17;8.85;;;;;;;16.87;58.97;102033.53;4860325;28;119959;-74
2021/09/06 04:44:59;;;;;;;20.37;10.47;;;;;;;16.88;59.60;102039.84;4847473;28;119889;-74
2021/09/06 04:47:26;;;;;;;20.53;9.93;;;;;;;16.86;59.76;102042.28;4830472;28;121223;-74
2021/09/06 04:49:52;;;;;;;18.83;8.47;;;;;;;16.88;59.57;102039.84;4821786;28;120118;-74
2021/09/06 04:52:21;;;;;;;16.75;7.93;;;;;;;16.82;59.36;102025.06;4824768;28;120457;-74
2021/09/06 04:54:47;;;;;;;16.20;6.70;;;;;;;16.88;59.43;102040.59;4848696;28;120474;-74
2021/09/06 04:57:12;;;;;;;14.63;6.95;;;;;;;16.88;59.28;102040.59;4830802;28;119670;-74
2021/09/06 04:59:39;;;;;;;12.60;6.70;;;;;;;16.87;59.21;102043.84;4833698;28;119740;-74
2021/09/06 05:02:04;;;;;;;11.97;7.00;;;;;;;16.88;59.87;102042.59;4819980;28;122783;-75
2021/09/06 05:04:31;;;;;;;15.30;7.80;;;;;;;16.90;59.76;102059.53;4827913;28;120093;-74
2021/09/06 05:06:57;;;;;;;16.73;8.67;;;;;;;16.87;60.03;102054.91;4816616;28;120284;-74
2021/09/06 05:09:22;;;;;;;17.40;8.50;;;;;;;16.89;60.46;102063.53;4846183;28;119749;-74
2021/09/06 05:11:51;;;;;;;17.53;7.83;;;;;;;16.94;60.85;102062.16;4834541;28;119975;-74
2021/09/06 05:14:17;;;;;;;16.58;7.97;;;;;;;16.92;61.08;102050.75;4822865;28;121061;-74
2021/09/06 05:16:43;;;;;;;16.92;8.10;;;;;;;16.99;61.16;102059.53;4835643;28;119613;-75
2021/09/06 05:19:09;;;;;;;18.67;9.10;;;;;;;17.07;61.56;102066.34;4832010;28;119884;-75
2021/09/06 05:21:34;;;;;;;19.13;9.48;;;;;;;17.04;62.00;102042.31;4846462;28;121813;-74
2021/09/06 05:24:03;;;;;;;19.65;9.23;;;;;;;17.21;61.98;102061.38;4846537;28;119504;-74
2021/09/06 05:26:30;;;;;;;22.30;9.70;;;;;;;17.24;62.35;102052.91;4828550;28;119970;-74
2021/09/06 05:28:55;;;;;;;26.10;9.90;;;;;;;17.32;62.42;102056.91;4844511;28;124845;-74
2021/09/06 05:31:21;;;;;;;26.20;9.88;;;;;;;17.43;62.25;102064.75;4852431;28;121112;-76
2021/09/06 05:33:47;;;;;;;25.30;10.02;;;;;;;17.49;62.22;102060.88;4868509;28;119592;-74
2021/09/06 05:36:13;;;;;;;31.17;10.45;;;;;;;17.60;62.78;102057.63;4860330;28;120069;-74
2021/09/06 05:38:40;;;;;;;23.90;9.90;;;;;;;17.69;62.56;102068.72;4856347;28;120884;-74
2021/09/06 05:41:26;;;;;;;23.48;10.35;;;;;;;17.77;62.68;102067.19;4832309;28;120475;-74
2021/09/06 05:43:52;;;;;;;24.50;10.00;;;;;;;17.86;62.73;102066.38;4833902;28;120044;-74
2021/09/06 05:46:20;;;;;;;25.13;11.00;;;;;;;17.94;62.85;102069.59;4865749;28;119652;-74
2021/09/06 05:48:46;;;;;;;27.48;10.05;;;;;;;18.00;63.06;102057.41;4826530;28;121922;-74
2021/09/06 05:51:12;;;;;;;23.42;9.80;;;;;;;18.08;62.99;102058.59;4848085;28;119917;-75
2021/09/06 05:54:10;;;;;;;27.67;10.20;;;;;;;18.19;63.09;102051.75;4810470;28;121586;-74
2021/09/06 05:56:36;;;;;;;28.05;10.77;;;;;;;18.25;62.99;102053.44;4836592;28;120520;-75
2021/09/06 05:59:03;;;;;;;24.40;10.50;;;;;;;18.33;63.44;102060.16;4839995;28;120706;-75
2021/09/06 06:01:31;;;;;;;19.67;9.77;;;;;;;18.41;63.27;102061.34;4843967;28;120813;-74
2021/09/06 06:03:57;;;;;;;22.50;10.30;;;;;;;18.48;62.60;102059.47;4812404;28;119731;-74
2021/09/06 06:06:29;;;;;;;22.35;9.75;;;;;;;18.52;62.77;102058.06;4840086;28;119891;-75
2021/09/06 06:08:58;;;;;;;21.75;9.98;;;;;;;18.60;62.95;102066.81;4826537;28;121496;-76
2021/09/06 06:11:24;;;;;;;18.90;9.60;;;;;;;18.64;63.20;102067.41;4867132;28;119733;-75
2021/09/06 06:13:50;;;;;;;20.73;9.77;;;;;;;18.69;62.97;102058.41;4849574;28;119808;-74
2021/09/06 06:16:19;;;;;;;21.75;10.15;;;;;;;18.76;63.11;102063.63;4849591;28;119696;-74
2021/09/06 06:18:45;;;;;;;21.10;10.13;;;;;;;18.85;63.27;102065.56;4843897;28;120164;-74
2021/09/06 06:21:14;;;;;;;23.67;10.13;;;;;;;18.93;63.35;102064.75;4835814;28;122276;-74
2021/09/06 06:23:52;;;;;;;23.23;10.30;;;;;;;19.00;63.41;102061.59;4832375;28;120079;-74
2021/09/06 06:26:32;;;;;;;24.52;12.23;;;;;;;19.09;64.30;102063.53;4830083;28;119978;-74
2021/09/06 06:28:59;;;;;;;21.07;10.27;;;;;;;19.18;63.70;102057.91;4843546;28;120781;-75
2021/09/06 06:31:25;;;;;;;20.17;10.80;;;;;;;19.30;64.01;102067.22;4829128;28;123082;-75
2021/09/06 06:33:51;;;;;;;20.42;11.13;;;;;;;19.40;64.28;102056.75;4814798;28;120992;-74
2021/09/06 06:36:18;;;;;;;18.67;11.00;;;;;;;19.52;64.09;102066.84;4838812;28;119924;-74
2021/09/06 06:38:48;;;;;;;19.60;11.13;;;;;;;19.61;64.33;102064.00;4869839;28;120062;-74
2021/09/06 06:41:14;;;;;;;18.15;10.60;;;;;;;19.77;64.35;102083.00;4811554;28;122406;-74
2021/09/06 06:43:45;;;;;;;15.63;10.50;;;;;;;19.86;63.75;102073.75;4831354;28;122031;-75
2021/09/06 06:46:14;;;;;;;15.25;10.18;;;;;;;19.95;63.75;102076.47;4849471;28;119779;-75
2021/09/06 06:48:41;;;;;;;17.27;10.27;;;;;;;20.02;63.35;102078.84;4855173;28;119952;-74
2021/09/06 06:51:06;;;;;;;15.17;9.73;;;;;;;20.06;63.60;102081.44;4830557;28;120900;-74
2021/09/06 06:53:40;;;;;;;18.02;9.95;;;;;;;20.12;63.61;102080.28;4835228;28;120252;-74
2021/09/06 06:56:05;;;;;;;15.10;9.57;;;;;;;20.20;63.77;102080.63;4827322;28;121647;-74
2021/09/06 06:58:32;;;;;;;16.45;10.38;;;;;;;20.28;63.82;102083.78;4853300;28;120210;-75
2021/09/06 07:01:00;;;;;;;16.85;9.85;;;;;;;20.37;63.78;102083.69;4831724;28;121625;-75
2021/09/06 07:03:27;;;;;;;17.08;10.45;;;;;;;20.47;63.39;102090.69;4847002;28;120273;-74
2021/09/06 07:05:52;;;;;;;20.10;10.30;;;;;;;20.49;63.59;102074.25;4861804;28;120246;-75
2021/09/06 07:08:20;;;;;;;18.15;10.15;;;;;;;20.61;63.61;102080.75;4833048;28;120376;-74
2021/09/06 07:10:47;;;;;;;17.92;10.32;;;;;;;20.66;63.02;102068.88;4827872;28;121846;-74
2021/09/06 07:13:13;;;;;;;16.67;10.50;;;;;;;20.72;62.38;102073.28;4832823;28;121585;-74
2021/09/06 07:15:40;;;;;;;20.67;11.57;;;;;;;20.71;62.85;102074.53;4828329;28;120445;-75
2021/09/06 07:18:08;;;;;;;17.60;10.88;;;;;;;20.81;63.30;102077.94;4851095;28;120472;-74
2021/09/06 07:20:35;;;;;;;17.35;11.00;;;;;;;20.80;63.19;102088.31;4849193;28;119819;-74
2021/09/06 07:23:02;;;;;;;15.13;10.20;;;;;;;20.81;62.64;102092.66;4829423;28;119988;-74
2021/09/06 07:25:28;;;;;;;17.67;9.80;;;;;;;20.86;62.90;102088.41;4833287;28;121532;-74
2021/09/06 07:27:54;;;;;;;14.27;10.30;;;;;;;20.93;63.22;102090.00;4859500;28;120323;-74
2021/09/06 07:30:20;;;;;;;17.88;11.13;;;;;;;20.94;62.79;102088.75;4859040;28;120293;-75
2021/09/06 07:32:46;;;;;;;17.25;10.38;;;;;;;20.95;62.78;102081.91;4822020;28;121076;-75
2021/09/06 07:35:13;;;;;;;15.23;10.70;;;;;;;21.00;62.26;102084.00;4842543;28;121230;-75
2021/09/06 07:37:39;;;;;;;16.15;10.63;;;;;;;21.03;62.72;102088.59;4840936;28;121452;-74
2021/09/06 07:40:10;;;;;;;15.83;10.37;;;;;;;21.07;62.68;102086.38;4827918;28;121956;-75
2021/09/06 07:42:39;;;;;;;14.38;9.93;;;;;;;21.06;62.04;102094.00;4817179;28;122314;-75
2021/09/06 07:45:07;;;;;;;15.43;10.00;;;;;;;21.08;61.90;102090.69;4838802;28;121102;-75
2021/09/06 07:47:33;;;;;;;12.73;9.07;;;;;;;21.05;61.95;102086.09;4813817;28;121626;-75
2021/09/06 07:50:00;;;;;;;13.20;8.83;;;;;;;21.02;62.15;102082.25;4841051;28;121686;-74
2021/09/06 07:52:27;;;;;;;13.88;9.20;;;;;;;21.04;61.97;102090.91;4855958;28;120886;-75
2021/09/06 07:54:53;;;;;;;14.35;9.20;;;;;;;21.04;62.33;102082.53;4852373;28;120198;-75
2021/09/06 07:57:19;;;;;;;13.57;9.27;;;;;;;21.03;61.95;102077.44;4837933;28;120489;-75
2021/09/06 07:59:45;;;;;;;15.43;9.07;;;;;;;21.18;62.04;102091.31;4820506;28;120490;-75
2021/09/06 08:02:11;;;;;;;12.93;8.50;;;;;;;21.23;62.09;102090.59;4831139;28;122181;-76
2021/09/06 08:04:43;;;;;;;15.10;9.80;;;;;;;21.31;62.12;102086.94;4839992;28;120764;-74
2021/09/06 08:07:09;;;;;;;12.98;8.90;;;;;;;21.40;61.70;102086.75;4822023;28;122641;-75
2021/09/06 08:09:35;;;;;;;12.70;9.05;;;;;;;21.49;61.68;102085.81;4839835;28;120347;-76
2021/09/06 08:12:01;;;;;;;13.85;9.63;;;;;;;21.65;61.90;102088.00;4859428;28;120411;-75
2021/09/06 08:14:27;;;;;;;13.35;8.43;;;;;;;21.80;61.20;102093.47;4835854;28;120441;-75
2021/09/06 08:16:54;;;;;;;13.30;8.02;;;;;;;21.94;59.84;102089.00;4826676;28;127893;-75
2021/09/06 08:19:20;;;;;;;14.30;9.25;;;;;;;22.04;60.07;102085.56;4850081;28;123689;-75
2021/09/06 08:21:47;;;;;;;18.93;10.97;;;;;;;22.13;60.20;102087.41;4841824;28;120859;-75
2021/09/06 08:24:14;;;;;;;18.83;10.35;;;;;;;22.22;59.99;102078.03;4846534;28;120707;-74
2021/09/06 08:26:40;;;;;;;18.27;11.90;;;;;;;22.29;59.50;102086.00;4824662;28;122223;-75
2021/09/06 08:29:09;;;;;;;21.07;12.07;;;;;;;22.30;59.67;102084.72;4834632;28;123253;-75
2021/09/06 08:31:35;;;;;;;21.38;12.75;;;;;;;22.29;59.79;102083.19;4821804;28;122772;-74
2021/09/06 08:34:01;;;;;;;13.73;9.77;;;;;;;22.26;59.04;102084.97;4853986;28;121938;-76
2021/09/06 08:36:27;;;;;;;18.30;11.55;;;;;;;22.30;59.57;102085.50;4838023;28;121481;-75
2021/09/06 08:38:53;;;;;;;19.50;11.43;;;;;;;22.30;59.20;102079.13;4849916;28;120759;-75
2021/09/06 08:41:19;;;;;;;16.88;11.32;;;;;;;22.38;59.15;102085.78;4855389;28;122857;-75
2021/09/06 08:43:45;;;;;;;19.25;12.32;;;;;;;22.45;58.85;102096.47;4833890;28;121098;-75
2021/09/06 08:46:22;;;;;;;20.52;12.30;;;;;;;22.49;59.44;102108.22;4826420;28;121170;-75
2021/09/06 08:48:48;;;;;;;20.45;12.77;;;;;;;22.50;59.09;102095.78;4835724;28;121218;-75
2021/09/06 08:51:15;;;;;;;19.92;12.07;;;;;;;22.56;59.56;102099.34;4826968;28;122319;-75
2021/09/06 08:53:41;;;;;;;21.73;11.65;;;;;;;22.62;59.19;102097.34;4822059;28;121583;-75
2021/09/06 08:56:07;;;;;;;21.00;11.70;;;;;;;22.64;57.94;102103.19;4842520;28;121156;-75
2021/09/06 08:58:37;;;;;;;18.07;10.77;;;;;;;22.63;58.62;102100.91;4831354;28;122360;-75
2021/09/06 09:01:03;;;;;;;18.97;11.57;;;;;;;22.58;58.17;102099.63;4821160;28;122761;-74
2021/09/06 09:03:42;;;;;;;17.92;11.35;;;;;;;22.57;58.50;102114.09;4852800;28;121909;-75
2021/09/06 09:06:19;;;;;;;16.37;11.40;;;;;;;22.56;58.72;102118.94;4823168;28;122035;-75
2021/09/06 09:08:51;;;;;;;19.63;13.18;;;;;;;22.63;57.55;102120.47;4847621;28;121176;-76
2021/09/06 09:11:37;;;;;;;19.95;13.10;;;;;;;22.70;58.23;102119.25;4836569;28;121589;-75
2021/09/06 09:14:14;;;;;;;20.42;13.40;;;;;;;22.80;57.91;102114.97;4827761;28;122206;-75
2021/09/06 09:16:58;;;;;;;19.80;12.90;;;;;;;22.89;57.27;102112.00;4817293;28;121626;-75
2021/09/06 09:19:44;;;;;;;19.35;12.80;;;;;;;22.95;56.61;102113.56;4824309;28;122740;-74
2021/09/06 09:22:38;;;;;;;18.95;12.38;;;;;;;23.03;57.36;102104.69;4830617;28;123344;-76
2021/09/06 09:25:26;;;;;;;20.77;13.35;;;;;;;23.08;56.90;102096.28;4831352;28;122341;-74
2021/09/06 09:28:10;;;;;;;19.13;13.00;;;;;;;23.12;56.19;102096.03;4822512;28;122494;-75
2021/09/06 09:31:04;;;;;;;19.88;12.77;;;;;;;23.15;57.10;102093.00;4814956;28;123243;-75
2021/09/06 09:33:43;;;;;;;22.80;13.65;;;;;;;23.18;56.63;102086.38;4836695;28;122857;-75
2021/09/06 09:36:36;;;;;;;20.00;12.95;;;;;;;23.17;56.00;102082.06;4834633;28;121958;-75
2021/09/06 09:39:13;;;;;;;19.45;13.00;;;;;;;23.13;56.65;102075.94;4849911;28;122614;-76
2021/09/06 09:41:43;;;;;;;19.05;13.18;;;;;;;23.14;56.41;102077.47;4842636;28;121525;-75
2021/09/06 09:44:20;;;;;;;19.35;13.05;;;;;;;23.11;56.49;102084.09;4859440;28;121912;-74
2021/09/06 09:47:08;;;;;;;22.08;13.57;;;;;;;23.06;55.46;102081.28;4813671;28;122104;-74
2021/09/06 09:49:34;;;;;;;20.27;13.93;;;;;;;23.03;56.11;102077.44;4861410;28;122215;-76
2021/09/06 09:52:01;;;;;;;23.80;15.97;;;;;;;23.06;54.28;102084.84;4839243;28;123263;-75
2021/09/06 09:54:28;;;;;;;21.15;14.38;;;;;;;23.07;53.82;102086.38;4824032;28;121677;-75
2021/09/06 09:56:54;;;;;;;18.90;13.88;;;;;;;23.05;53.57;102085.34;4855966;28;122598;-74
2021/09/06 09:59:22;;;;;;;19.25;13.93;;;;;;;23.04;55.24;102072.63;4858992;28;121830;-75
2021/09/06 10:02:11;;;;;;;21.40;14.20;;;;;;;23.16;54.15;102085.38;4833985;28;121722;-74
2021/09/06 10:04:50;;;;;;;20.85;14.00;;;;;;;23.18;55.24;102083.59;4858074;28;123021;-74
2021/09/06 10:07:18;;;;;;;19.73;13.27;;;;;;;23.23;54.44;102080.06;4844768;28;122649;-76
2021/09/06 10:09:45;;;;;;;20.15;13.52;;;;;;;23.28;55.00;102084.13;4841121;28;122594;-74
2021/09/06 10:12:33;;;;;;;18.70;13.50;;;;;;;23.30;55.15;102078.03;4923055;23;123987;-70
2021/09/06 10:15:05;;;;;;;21.63;14.15;;;;;;;23.32;54.66;102083.88;4842383;28;121693;-71
2021/09/06 10:17:38;;;;;;;24.65;15.35;;;;;;;23.38;55.13;102087.44;4846714;28;121834;-71
2021/09/06 10:20:12;;;;;;;20.00;15.00;;;;;;;23.44;54.50;102091.03;4825768;28;121933;-71
2021/09/06 10:22:41;;;;;;;22.23;15.20;;;;;;;23.48;54.53;102085.94;4842007;28;122566;-71
2021/09/06 10:25:09;;;;;;;21.80;14.97;;;;;;;23.53;53.57;102085.19;4823672;28;123571;-71
2021/09/06 10:27:38;;;;;;;20.50;14.93;;;;;;;23.53;53.60;102088.75;4845107;28;121955;-71
2021/09/06 10:30:11;;;;;;;20.58;14.43;;;;;;;23.53;53.26;102090.78;4843070;28;121776;-72
2021/09/06 10:32:37;;;;;;;22.40;16.38;;;;;;;23.54;54.42;102084.69;4826726;28;123307;-71
2021/09/06 10:35:10;;;;;;;21.90;15.93;;;;;;;23.52;52.65;102087.22;4835350;28;122199;-71
2021/09/06 10:37:40;;;;;;;23.17;16.58;;;;;;;23.55;53.46;102096.66;4841256;28;122216;-71
2021/09/06 10:40:08;;;;;;;24.17;16.80;;;;;;;23.60;53.36;102095.91;4847563;28;122692;-72
2021/09/06 10:42:37;;;;;;;23.47;17.37;;;;;;;23.60;53.54;102101.50;4841611;28;122203;-73
2021/09/06 10:45:06;;;;;;;22.92;15.60;;;;;;;23.62;53.29;102106.59;4844017;28;122585;-71
2021/09/06 10:47:42;;;;;;;23.27;16.55;;;;;;;23.60;53.47;102098.72;4824668;28;122701;-71
2021/09/06 10:50:17;;;;;;;21.48;15.75;;;;;;;23.60;53.66;102100.75;4842471;28;122697;-71
2021/09/06 10:52:48;;;;;;;21.90;15.73;;;;;;;23.60;53.63;102107.13;4840437;28;125431;-71
2021/09/06 10:55:19;;;;;;;21.73;15.60;;;;;;;23.58;53.02;102104.06;4838874;28;123076;-72
2021/09/06 10:57:47;;;;;;;22.08;16.38;;;;;;;23.59;53.71;102097.19;4842494;28;122293;-72
2021/09/06 11:00:20;;;;;;;23.80;16.73;;;;;;;23.62;53.63;102095.41;4841520;28;123166;-71
2021/09/06 11:02:49;;;;;;;23.25;16.13;;;;;;;23.64;53.19;102093.63;4843076;28;121785;-72
2021/09/06 11:05:22;;;;;;;20.98;16.15;;;;;;;23.72;53.17;102091.09;4853142;28;122714;-71
2021/09/06 11:07:48;;;;;;;21.07;15.63;;;;;;;23.75;51.50;102096.44;4838888;28;122527;-71
2021/09/06 11:10:19;;;;;;;22.92;16.02;;;;;;;23.81;52.24;102102.03;4824648;28;122512;-71
2021/09/06 11:12:57;;;;;;;25.73;17.35;;;;;;;23.83;51.96;102097.44;4842352;28;122288;-72
2021/09/06 11:15:26;;;;;;;20.67;15.43;;;;;;;23.85;52.42;102105.34;4843796;28;122456;-72
2021/09/06 11:18:01;;;;;;;21.60;16.05;;;;;;;23.81;52.44;102094.38;4827915;28;123093;-72